createdAt,value
2019-02-02T00:01:10.580Z,94.34
2019-02-02T00:03:37.124Z,94.55
2019-02-02T00:06:04.497Z,94.85
2019-02-02T00:08:30.967Z,95.10
2019-02-02T00:10:57.516Z,95.26
2019-02-02T00:13:24.250Z,95.39
2019-02-02T00:15:51.077Z,95.52
2019-02-02T00:18:17.551Z,95.59
2019-02-02T00:20:44.075Z,95.69
2019-02-02T00:23:10.852Z,95.76
2019-02-02T00:25:38.058Z,95.79
2019-02-02T00:28:04.731Z,95.81
2019-02-02T00:30:31.670Z,95.79
2019-02-02T00:32:58.226Z,95.83
2019-02-02T00:35:24.720Z,95.87
2019-02-02T00:37:51.451Z,95.91
2019-02-02T00:40:18.250Z,95.90
2019-02-02T00:42:44.806Z,95.91
2019-02-02T00:45:11.968Z,95.90
2019-02-02T00:47:38.387Z,95.92
2019-02-02T00:50:05.248Z,96.02
2019-02-02T00:52:31.739Z,96.10
2019-02-02T00:54:58.541Z,96.13
2019-02-02T00:57:25.009Z,96.18
2019-02-02T00:59:52.089Z,96.19
2019-02-02T01:02:18.640Z,96.15
2019-02-02T01:04:45.528Z,96.15
2019-02-02T01:07:12.370Z,96.20
2019-02-02T01:09:39.757Z,96.26
2019-02-02T01:12:06.620Z,96.30
2019-02-02T01:14:33.177Z,96.34
2019-02-02T01:16:59.638Z,96.38
2019-02-02T01:19:26.305Z,96.44
2019-02-02T01:21:52.897Z,96.50
2019-02-02T01:24:19.619Z,96.61
2019-02-02T01:26:46.116Z,96.70
2019-02-02T01:29:12.924Z,96.74
2019-02-02T01:31:39.511Z,96.77
2019-02-02T01:34:06.354Z,96.80
2019-02-02T01:36:32.869Z,96.87
2019-02-02T01:38:59.400Z,96.93
2019-02-02T01:41:25.864Z,96.99
2019-02-02T01:43:52.320Z,97.09
2019-02-02T01:46:19.013Z,97.12
2019-02-02T01:48:45.480Z,97.12
2019-02-02T01:51:12.212Z,97.18
2019-02-02T01:53:38.727Z,97.23
2019-02-02T01:56:05.356Z,97.34
2019-02-02T01:58:34.217Z,97.41
2019-02-02T02:01:00.884Z,97.45
2019-02-02T02:03:27.499Z,97.42
2019-02-02T02:05:54.029Z,97.42
2019-02-02T02:08:20.518Z,97.46
2019-02-02T02:10:47.049Z,97.56
2019-02-02T02:13:13.573Z,97.63
2019-02-02T02:15:40.101Z,97.69
2019-02-02T02:18:06.754Z,97.74
2019-02-02T02:20:33.198Z,97.82
2019-02-02T02:23:00.352Z,97.91
2019-02-02T02:25:26.844Z,98.01
2019-02-02T02:27:53.316Z,98.08
2019-02-02T02:30:21.276Z,98.13
2019-02-02T02:32:47.905Z,98.20
2019-02-02T02:35:14.664Z,98.25
2019-02-02T02:37:41.419Z,98.28
2019-02-02T02:40:09.467Z,98.31
2019-02-02T02:42:36.056Z,98.37
2019-02-02T02:45:03.993Z,98.46
2019-02-02T02:47:30.606Z,98.47
2019-02-02T02:49:58.165Z,98.49
2019-02-02T02:52:24.665Z,98.52
2019-02-02T02:54:51.161Z,98.57
2019-02-02T02:57:17.671Z,98.58
2019-02-02T02:59:44.188Z,98.60
2019-02-02T03:02:10.694Z,98.63
2019-02-02T03:04:37.238Z,98.68
2019-02-02T03:07:04.123Z,98.76
2019-02-02T03:09:30.648Z,98.83
2019-02-02T03:11:57.320Z,98.85
2019-02-02T03:14:23.815Z,98.79
2019-02-02T03:16:51.065Z,98.75
2019-02-02T03:19:17.582Z,98.68
2019-02-02T03:21:44.240Z,98.63
2019-02-02T03:24:10.691Z,98.70
2019-02-02T03:26:37.208Z,98.77
2019-02-02T03:29:03.689Z,98.80
2019-02-02T03:31:30.217Z,98.88
2019-02-02T03:33:57.030Z,98.94
2019-02-02T03:36:24.043Z,98.98
2019-02-02T03:38:51.000Z,99.00
2019-02-02T03:41:17.461Z,99.00
2019-02-02T03:43:44.553Z,98.93
2019-02-02T03:46:11.356Z,98.85
2019-02-02T03:48:37.889Z,98.73
2019-02-02T03:51:08.022Z,98.70
2019-02-02T03:53:34.658Z,98.68
2019-02-02T03:56:01.115Z,98.70
2019-02-02T03:58:27.630Z,98.73
2019-02-02T04:00:54.078Z,98.80
2019-02-02T04:03:20.685Z,98.83
2019-02-02T04:05:47.146Z,98.87
2019-02-02T04:08:13.958Z,98.85
2019-02-02T04:10:48.576Z,98.84
2019-02-02T04:13:15.400Z,98.85
2019-02-02T04:15:42.272Z,98.86
2019-02-02T04:18:08.847Z,98.90
2019-02-02T04:20:35.341Z,98.95
2019-02-02T04:23:02.215Z,98.99
2019-02-02T04:25:28.675Z,98.98
2019-02-02T04:27:55.279Z,99.00
2019-02-02T04:30:23.423Z,99.05
2019-02-02T04:32:50.557Z,99.09
2019-02-02T04:35:17.423Z,99.16
2019-02-02T04:37:44.141Z,99.17
2019-02-02T04:40:11.356Z,99.20
2019-02-02T04:42:37.830Z,99.19
2019-02-02T04:45:05.328Z,99.24
2019-02-02T04:47:31.813Z,99.28
2019-02-02T04:49:58.415Z,99.36
2019-02-02T04:52:25.118Z,99.46
2019-02-02T04:54:52.202Z,99.53
2019-02-02T04:57:18.753Z,99.62
2019-02-02T04:59:45.232Z,99.67
2019-02-02T05:02:11.964Z,99.72
2019-02-02T05:04:38.468Z,99.75
2019-02-02T05:07:05.171Z,99.80
2019-02-02T05:09:31.760Z,99.84
2019-02-02T05:11:58.372Z,99.88
2019-02-02T05:14:24.914Z,99.96
2019-02-02T05:16:51.383Z,100.00
2019-02-02T05:19:17.859Z,100.00
2019-02-02T05:21:44.751Z,100.00
2019-02-02T05:24:11.427Z,100.00
2019-02-02T05:26:37.962Z,100.00
2019-02-02T05:29:04.694Z,100.00
2019-02-02T05:31:31.200Z,100.00
2019-02-02T05:33:57.853Z,100.00
2019-02-02T05:36:24.496Z,100.00
2019-02-02T05:38:51.440Z,100.00
2019-02-02T05:41:18.000Z,100.00
2019-02-02T05:43:44.540Z,100.00
2019-02-02T05:46:11.046Z,100.00
2019-02-02T05:48:37.526Z,100.00
2019-02-02T05:51:04.019Z,100.00
2019-02-02T05:53:30.527Z,100.00
2019-02-02T05:55:57.000Z,100.00
2019-02-02T05:58:23.605Z,100.00
2019-02-02T06:00:52.407Z,100.00
2019-02-02T06:03:19.101Z,100.00
2019-02-02T06:05:45.560Z,100.00
2019-02-02T06:08:12.305Z,100.00
2019-02-02T06:10:38.926Z,100.00
2019-02-02T06:13:05.594Z,100.00
2019-02-02T06:15:32.147Z,100.00
2019-02-02T06:17:59.673Z,100.00
2019-02-02T06:20:26.199Z,100.00
2019-02-02T06:22:53.083Z,100.00
2019-02-02T06:25:19.767Z,100.00
2019-02-02T06:27:46.367Z,100.00
2019-02-02T06:30:14.699Z,100.00
2019-02-02T06:32:41.212Z,100.00
2019-02-02T06:35:09.288Z,100.00
2019-02-02T06:37:35.942Z,100.00
2019-02-02T06:40:03.331Z,100.00
2019-02-02T06:42:29.892Z,100.00
2019-02-02T06:44:56.391Z,100.00
2019-02-02T06:47:22.857Z,100.00
2019-02-02T06:49:49.628Z,100.00
2019-02-02T06:52:16.183Z,100.00
2019-02-02T06:54:42.719Z,100.00
2019-02-02T06:57:09.196Z,100.00
2019-02-02T06:59:35.671Z,100.00
2019-02-02T07:02:02.606Z,100.00
2019-02-02T07:04:29.056Z,100.00
2019-02-02T07:06:55.552Z,100.00
2019-02-02T07:09:22.276Z,100.00
2019-02-02T07:11:48.775Z,100.00
2019-02-02T07:14:15.237Z,100.00
2019-02-02T07:16:46.511Z,100.00
2019-02-02T07:19:13.174Z,100.00
2019-02-02T07:21:41.787Z,100.00
2019-02-02T07:24:08.430Z,100.00
2019-02-02T07:26:34.892Z,100.00
2019-02-02T07:29:01.523Z,100.00
2019-02-02T07:31:28.373Z,100.00
2019-02-02T07:33:54.842Z,100.00
2019-02-02T07:36:21.370Z,100.00
2019-02-02T07:38:47.897Z,100.00
2019-02-02T07:41:14.690Z,100.00
2019-02-02T07:43:41.174Z,100.00
2019-02-02T07:46:14.824Z,100.00
2019-02-02T07:48:36.902Z,100.00
2019-02-02T07:51:03.584Z,100.00
2019-02-02T07:53:30.026Z,100.00
2019-02-02T07:55:56.568Z,100.00
2019-02-02T07:58:23.140Z,100.00
2019-02-02T08:00:49.898Z,100.00
2019-02-02T08:03:16.525Z,100.00
2019-02-02T08:05:43.025Z,100.00
2019-02-02T08:08:11.601Z,100.00
2019-02-02T08:10:38.128Z,100.00
2019-02-02T08:13:05.617Z,100.00
2019-02-02T08:15:32.542Z,100.00
2019-02-02T08:17:59.156Z,100.00
2019-02-02T08:20:25.835Z,100.00
2019-02-02T08:22:52.553Z,100.00
2019-02-02T08:25:19.281Z,100.00
2019-02-02T08:27:45.801Z,100.00
2019-02-02T08:30:16.667Z,100.00
2019-02-02T08:32:47.594Z,100.00
2019-02-02T08:35:14.929Z,100.00
2019-02-02T08:37:41.675Z,100.00
2019-02-02T08:40:10.068Z,100.00
2019-02-02T08:42:36.597Z,100.00
2019-02-02T08:45:04.086Z,100.00
2019-02-02T08:47:32.707Z,100.00
2019-02-02T08:49:59.332Z,100.00
2019-02-02T08:52:26.551Z,99.61
2019-02-02T08:54:53.199Z,99.07
2019-02-02T08:57:20.435Z,98.97
2019-02-02T08:59:48.392Z,98.73
2019-02-02T09:02:15.339Z,98.26
2019-02-02T09:04:42.160Z,98.00
2019-02-02T09:07:08.659Z,97.43
2019-02-02T09:09:35.161Z,97.01
2019-02-02T09:12:01.628Z,96.79
2019-02-02T09:14:28.195Z,96.31
2019-02-02T09:16:54.960Z,96.17
2019-02-02T09:19:21.481Z,96.18
2019-02-02T09:21:48.479Z,96.12
2019-02-02T09:24:15.509Z,96.01
2019-02-02T09:26:42.281Z,95.43
2019-02-02T09:29:10.509Z,95.31
2019-02-02T09:31:37.323Z,95.24
2019-02-02T09:34:03.881Z,95.29
2019-02-02T09:36:30.545Z,95.22
2019-02-02T09:38:57.102Z,94.94
2019-02-02T09:41:28.821Z,94.84
2019-02-02T09:43:55.838Z,94.84
2019-02-02T09:46:23.031Z,94.69
2019-02-02T09:48:49.550Z,94.54
2019-02-02T09:51:16.244Z,94.80
2019-02-02T09:53:42.956Z,94.96
2019-02-02T09:56:09.467Z,94.95
2019-02-02T09:58:36.399Z,94.55
2019-02-02T10:01:04.063Z,94.06
2019-02-02T10:03:30.969Z,93.58
2019-02-02T10:05:57.567Z,93.64
2019-02-02T10:08:24.553Z,93.59
2019-02-02T10:10:51.351Z,93.07
2019-02-02T10:13:24.325Z,93.00
2019-02-02T10:15:51.528Z,93.11
2019-02-02T10:18:18.032Z,93.30
2019-02-02T10:20:46.538Z,93.23
2019-02-02T10:23:18.108Z,92.88
2019-02-02T10:25:48.557Z,93.19
2019-02-02T10:28:15.090Z,93.23
2019-02-02T10:30:42.645Z,93.05
2019-02-02T10:33:10.078Z,93.26
2019-02-02T10:35:45.160Z,93.22
2019-02-02T10:38:24.440Z,93.42
2019-02-02T10:40:58.640Z,93.59
2019-02-02T10:43:25.414Z,93.52
2019-02-02T10:45:51.981Z,93.78
2019-02-02T10:48:24.671Z,93.92
2019-02-02T10:50:54.120Z,93.95
2019-02-02T10:53:20.919Z,93.79
2019-02-02T10:55:47.519Z,93.62
2019-02-02T10:58:18.313Z,93.56
2019-02-02T11:00:46.692Z,93.73
2019-02-02T11:03:21.055Z,93.41
2019-02-02T11:05:58.614Z,93.40
2019-02-02T11:08:25.390Z,93.34
2019-02-02T11:10:51.859Z,93.50
2019-02-02T11:13:18.653Z,93.51
2019-02-02T11:15:45.522Z,93.79
2019-02-02T11:18:12.362Z,94.06
2019-02-02T11:20:39.005Z,94.18
2019-02-02T11:23:05.605Z,94.25
2019-02-02T11:25:32.566Z,94.24
2019-02-02T11:27:59.434Z,94.35
2019-02-02T11:30:27.953Z,94.34
2019-02-02T11:32:54.609Z,94.34
2019-02-02T11:35:21.368Z,94.72
2019-02-02T11:37:50.820Z,94.80
2019-02-02T11:40:38.244Z,94.87
2019-02-02T11:43:07.475Z,94.88
2019-02-02T11:45:34.370Z,94.99
2019-02-02T11:48:01.144Z,94.93
2019-02-02T11:50:30.388Z,95.03
2019-02-02T11:52:57.306Z,95.49
2019-02-02T11:55:23.860Z,95.46
2019-02-02T11:57:50.853Z,95.22
2019-02-02T12:00:25.476Z,95.43
2019-02-02T12:02:52.061Z,95.65
2019-02-02T12:05:19.407Z,95.67
2019-02-02T12:07:46.034Z,95.81
2019-02-02T12:10:14.430Z,95.50
2019-02-02T12:12:42.224Z,95.41
2019-02-02T12:15:10.645Z,95.55
2019-02-02T12:17:40.253Z,95.52
2019-02-02T12:20:08.789Z,95.42
2019-02-02T12:22:37.599Z,95.30
2019-02-02T12:25:04.626Z,95.29
2019-02-02T12:27:31.484Z,95.33
2019-02-02T12:29:58.203Z,95.32
2019-02-02T12:32:26.963Z,95.10
2019-02-02T12:34:53.792Z,94.78
2019-02-02T12:37:20.461Z,94.54
2019-02-02T12:39:46.937Z,94.66
2019-02-02T12:42:13.762Z,94.25
2019-02-02T12:44:40.326Z,94.19
2019-02-02T12:47:06.810Z,94.23
2019-02-02T12:49:33.291Z,94.38
2019-02-02T12:51:59.847Z,94.71
2019-02-02T12:54:26.371Z,94.76
2019-02-02T12:56:52.842Z,95.11
2019-02-02T12:59:19.591Z,95.26
2019-02-02T13:01:46.105Z,95.38
2019-02-02T13:04:12.667Z,95.70
2019-02-02T13:06:39.417Z,96.12
2019-02-02T13:09:07.646Z,96.45
2019-02-02T13:11:34.244Z,96.64
2019-02-02T13:14:00.741Z,96.59
2019-02-02T13:16:27.365Z,96.46
2019-02-02T13:18:53.997Z,96.55
2019-02-02T13:21:21.601Z,96.73
2019-02-02T13:23:48.237Z,96.62
2019-02-02T13:26:14.792Z,96.55
2019-02-02T13:28:41.365Z,96.60
2019-02-02T13:31:07.893Z,96.81
2019-02-02T13:33:34.409Z,97.06
2019-02-02T13:36:00.933Z,97.23
2019-02-02T13:38:27.458Z,97.49
2019-02-02T13:40:54.163Z,97.33
2019-02-02T13:43:20.770Z,97.17
2019-02-02T13:45:47.356Z,96.82
2019-02-02T13:48:13.912Z,96.68
2019-02-02T13:50:40.517Z,96.58
2019-02-02T13:53:08.015Z,95.97
2019-02-02T13:55:34.679Z,95.53
2019-02-02T13:58:02.522Z,95.32
2019-02-02T14:00:30.249Z,95.15
2019-02-02T14:03:02.716Z,95.02
2019-02-02T14:05:26.793Z,94.90
2019-02-02T14:07:54.207Z,94.91
2019-02-02T14:10:22.712Z,94.87
2019-02-02T14:12:50.020Z,94.90
2019-02-02T14:15:16.924Z,94.81
2019-02-02T14:17:44.265Z,94.80
2019-02-02T14:20:11.313Z,94.58
2019-02-02T14:22:37.973Z,94.67
2019-02-02T14:25:05.837Z,94.55
2019-02-02T14:27:32.375Z,94.57
2019-02-02T14:29:59.372Z,94.81
2019-02-02T14:32:25.944Z,95.10
2019-02-02T14:34:52.625Z,95.25
2019-02-02T14:37:19.599Z,95.72
2019-02-02T14:39:49.033Z,95.85
2019-02-02T14:42:18.236Z,96.08
2019-02-02T14:44:43.885Z,96.23
2019-02-02T14:47:11.849Z,96.13
2019-02-02T14:49:38.539Z,96.07
2019-02-02T14:52:05.776Z,96.08
2019-02-02T14:54:32.391Z,96.20
2019-02-02T14:56:58.891Z,96.25
2019-02-02T14:59:27.822Z,96.30
2019-02-02T15:01:54.319Z,96.21
2019-02-02T15:04:21.624Z,96.38
2019-02-02T15:06:48.392Z,96.44
2019-02-02T15:09:15.083Z,96.47
2019-02-02T15:11:41.868Z,96.58
2019-02-02T15:14:08.596Z,96.66
2019-02-02T15:16:35.971Z,96.66
2019-02-02T15:19:03.818Z,96.63
2019-02-02T15:21:30.359Z,96.67
2019-02-02T15:23:58.065Z,96.78
2019-02-02T15:26:24.817Z,96.95
2019-02-02T15:28:51.634Z,97.11
2019-02-02T15:31:18.696Z,97.34
2019-02-02T15:33:45.441Z,97.41
2019-02-02T15:36:16.518Z,97.51
2019-02-02T15:38:43.183Z,97.66
2019-02-02T15:41:10.905Z,97.78
2019-02-02T15:43:37.701Z,97.82
2019-02-02T15:46:04.693Z,97.83
2019-02-02T15:48:42.551Z,97.83
2019-02-02T15:51:08.722Z,97.92
2019-02-02T15:53:35.563Z,98.01
2019-02-02T15:56:02.278Z,98.12
2019-02-02T15:58:29.050Z,98.20
2019-02-02T16:00:56.889Z,98.25
2019-02-02T16:03:23.613Z,98.29
2019-02-02T16:05:50.405Z,98.18
2019-02-02T16:08:19.225Z,98.20
2019-02-02T16:10:46.571Z,98.32
2019-02-02T16:13:13.547Z,98.43
2019-02-02T16:15:40.645Z,98.38
2019-02-02T16:18:08.215Z,98.36
2019-02-02T16:20:37.151Z,98.38
2019-02-02T16:23:04.342Z,98.46
2019-02-02T16:25:32.114Z,98.59
2019-02-02T16:27:59.070Z,98.67
2019-02-02T16:30:26.302Z,98.76
2019-02-02T16:32:53.837Z,98.91
2019-02-02T16:35:21.016Z,98.96
2019-02-02T16:37:47.643Z,99.06
2019-02-02T16:40:18.577Z,99.17
2019-02-02T16:42:45.161Z,99.26
2019-02-02T16:45:14.018Z,99.30
2019-02-02T16:47:41.429Z,99.35
2019-02-02T16:50:11.231Z,99.41
2019-02-02T16:52:37.709Z,99.45
2019-02-02T16:55:05.099Z,99.54
2019-02-02T16:57:31.626Z,99.59
2019-02-02T16:59:58.564Z,99.64
2019-02-02T17:02:25.419Z,99.66
2019-02-02T17:04:51.925Z,99.69
2019-02-02T17:07:18.616Z,99.74
2019-02-02T17:09:46.320Z,99.80
2019-02-02T17:12:13.136Z,99.85
2019-02-02T17:14:39.823Z,99.90
2019-02-02T17:17:06.644Z,99.90
2019-02-02T17:19:33.136Z,99.91
2019-02-02T17:21:59.594Z,99.96
2019-02-02T17:24:26.086Z,100.00
2019-02-02T17:26:52.602Z,100.00
2019-02-02T17:29:19.052Z,100.00
2019-02-02T17:31:45.528Z,100.00
2019-02-02T17:34:11.991Z,100.00
2019-02-02T17:36:38.540Z,100.00
2019-02-02T17:39:05.399Z,100.00
2019-02-02T17:41:31.877Z,100.00
2019-02-02T17:43:58.437Z,100.00
2019-02-02T17:46:24.937Z,100.00
2019-02-02T17:48:51.549Z,100.00
2019-02-02T17:51:18.179Z,100.00
2019-02-02T17:53:46.089Z,100.00
2019-02-02T17:56:12.599Z,100.00
2019-02-02T17:58:40.080Z,100.00
2019-02-02T18:01:06.770Z,100.00
2019-02-02T18:03:34.504Z,100.00
2019-02-02T18:06:01.766Z,100.00
2019-02-02T18:08:30.136Z,100.00
2019-02-02T18:10:57.048Z,100.00
2019-02-02T18:13:23.604Z,100.00
2019-02-02T18:15:51.306Z,100.00
2019-02-02T18:18:18.202Z,100.00
2019-02-02T18:20:44.751Z,100.00
2019-02-02T18:23:11.224Z,100.00
2019-02-02T18:25:37.924Z,100.00
2019-02-02T18:28:05.228Z,100.00
2019-02-02T18:30:32.076Z,100.00
2019-02-02T18:32:59.252Z,100.00
2019-02-02T18:35:26.093Z,100.00
2019-02-02T18:37:52.900Z,100.00
2019-02-02T18:40:19.599Z,100.00
2019-02-02T18:42:46.361Z,100.00
2019-02-02T18:45:15.862Z,100.00
2019-02-02T18:47:42.451Z,100.00
2019-02-02T18:50:11.110Z,100.00
2019-02-02T18:52:38.841Z,100.00
2019-02-02T18:55:08.454Z,100.00
2019-02-02T18:57:35.288Z,100.00
2019-02-02T19:00:01.795Z,100.00
2019-02-02T19:02:30.351Z,100.00
2019-02-02T19:05:03.807Z,100.00
2019-02-02T19:07:25.568Z,100.00
2019-02-02T19:09:52.125Z,100.00
2019-02-02T19:12:18.729Z,100.00
2019-02-02T19:14:45.626Z,100.00
2019-02-02T19:17:12.693Z,100.00
2019-02-02T19:19:39.327Z,100.00
2019-02-02T19:22:06.195Z,100.00
2019-02-02T19:24:32.737Z,100.00
2019-02-02T19:26:59.229Z,100.00
2019-02-02T19:29:26.262Z,100.00
2019-02-02T19:31:52.767Z,100.00
2019-02-02T19:34:19.464Z,100.00
2019-02-02T19:36:47.220Z,100.00
2019-02-02T19:39:13.818Z,100.00
2019-02-02T19:41:41.441Z,100.00
2019-02-02T19:44:08.314Z,100.00
2019-02-02T19:46:34.871Z,100.00
2019-02-02T19:49:01.500Z,100.00
2019-02-02T19:51:28.139Z,100.00
2019-02-02T19:53:54.658Z,100.00
2019-02-02T19:56:22.197Z,100.00
2019-02-02T19:58:49.166Z,100.00
2019-02-02T20:01:17.740Z,100.00
2019-02-02T20:03:44.287Z,100.00
2019-02-02T20:06:11.069Z,100.00
2019-02-02T20:08:39.816Z,100.00
2019-02-02T20:11:06.516Z,100.00
2019-02-02T20:13:33.406Z,100.00
2019-02-02T20:16:00.057Z,100.00
2019-02-02T20:18:26.702Z,100.00
2019-02-02T20:20:53.268Z,100.00
2019-02-02T20:23:19.889Z,100.00
2019-02-02T20:25:46.389Z,100.00
2019-02-02T20:28:14.269Z,100.00
2019-02-02T20:30:41.559Z,100.00
2019-02-02T20:33:08.801Z,100.00
2019-02-02T20:35:42.142Z,100.00
2019-02-02T20:38:04.591Z,100.00
2019-02-02T20:40:31.754Z,100.00
2019-02-02T20:42:58.805Z,100.00
2019-02-02T20:45:28.319Z,100.00
2019-02-02T20:47:54.955Z,100.00
2019-02-02T20:50:21.760Z,100.00
2019-02-02T20:52:48.456Z,100.00
2019-02-02T20:55:18.345Z,100.00
2019-02-02T20:57:45.970Z,100.00
2019-02-02T21:00:15.516Z,100.00
2019-02-02T21:02:42.262Z,100.00
2019-02-02T21:05:08.956Z,100.00
2019-02-02T21:07:35.769Z,100.00
2019-02-02T21:10:03.731Z,100.00
2019-02-02T21:12:30.859Z,100.00
2019-02-02T21:14:58.099Z,100.00
2019-02-02T21:17:24.873Z,100.00
2019-02-02T21:19:51.751Z,100.00
2019-02-02T21:22:18.350Z,100.00
2019-02-02T21:24:45.278Z,100.00
2019-02-02T21:27:12.002Z,100.00
2019-02-02T21:29:39.402Z,100.00
2019-02-02T21:32:06.001Z,100.00
2019-02-02T21:34:33.114Z,100.00
2019-02-02T21:36:59.835Z,100.00
2019-02-02T21:39:26.405Z,100.00
2019-02-02T21:41:53.863Z,100.00
2019-02-02T21:44:20.783Z,100.00
2019-02-02T21:46:47.930Z,100.00
2019-02-02T21:49:14.838Z,100.00
2019-02-02T21:51:46.601Z,100.00
2019-02-02T21:54:13.287Z,100.00
2019-02-02T21:56:40.104Z,100.00
2019-02-02T21:59:07.809Z,100.00
2019-02-02T22:01:34.707Z,100.00
2019-02-02T22:04:01.970Z,100.00
2019-02-02T22:06:28.553Z,100.00
2019-02-02T22:08:55.885Z,100.00
2019-02-02T22:11:22.766Z,100.00
2019-02-02T22:13:49.366Z,100.00
2019-02-02T22:16:16.018Z,100.00
2019-02-02T22:18:42.825Z,100.00
2019-02-02T22:21:09.802Z,100.00
2019-02-02T22:23:36.259Z,100.00
2019-02-02T22:26:03.065Z,100.00
2019-02-02T22:28:29.591Z,100.00
2019-02-02T22:30:56.066Z,100.00
2019-02-02T22:33:22.990Z,100.00
2019-02-02T22:35:49.588Z,100.00
2019-02-02T22:38:16.253Z,100.00
2019-02-02T22:40:42.772Z,100.00
2019-02-02T22:43:12.180Z,100.00
2019-02-02T22:45:38.732Z,100.00
2019-02-02T22:48:05.866Z,100.00
2019-02-02T22:50:33.380Z,100.00
2019-02-02T22:52:59.889Z,100.00
2019-02-02T22:55:26.344Z,100.00
2019-02-02T22:57:53.354Z,100.00
2019-02-02T23:00:56.465Z,100.00
2019-02-02T23:03:35.044Z,100.00
2019-02-02T23:06:39.552Z,100.00
2019-02-02T23:10:02.513Z,100.00
2019-02-02T23:12:54.495Z,100.00
2019-02-02T23:15:34.811Z,100.00
2019-02-02T23:18:01.453Z,100.00
2019-02-02T23:20:28.275Z,100.00
2019-02-02T23:22:55.062Z,100.00
2019-02-02T23:25:22.097Z,100.00
2019-02-02T23:27:48.555Z,100.00
2019-02-02T23:30:16.020Z,100.00
2019-02-02T23:32:43.015Z,100.00
2019-02-02T23:35:09.575Z,100.00
2019-02-02T23:37:36.285Z,100.00
2019-02-02T23:40:03.916Z,100.00
2019-02-02T23:42:30.602Z,100.00
2019-02-02T23:44:57.097Z,100.00
2019-02-02T23:47:23.794Z,100.00
2019-02-02T23:49:50.249Z,100.00
2019-02-02T23:52:17.017Z,100.00
2019-02-02T23:54:44.601Z,100.00
2019-02-02T23:57:11.107Z,100.00
2019-02-02T23:59:37.985Z,100.00
